createdAt,value
2022-11-30T00:03:52.418Z,6.72
2022-11-30T00:09:00.796Z,6.76
2022-11-30T00:14:09.343Z,7.06
2022-11-30T00:19:17.882Z,6.77
2022-11-30T00:24:26.617Z,7.26
2022-11-30T00:29:35.036Z,7.09
2022-11-30T00:34:43.853Z,6.78
2022-11-30T00:39:51.972Z,6.67
2022-11-30T00:45:00.646Z,6.80
2022-11-30T00:50:08.826Z,6.31
2022-11-30T00:55:17.593Z,6.50
2022-11-30T01:00:25.782Z,6.38
2022-11-30T01:05:34.476Z,6.26
2022-11-30T01:10:42.391Z,6.27
2022-11-30T01:15:51.422Z,6.10
2022-11-30T01:20:59.413Z,6.39
2022-11-30T01:26:08.463Z,6.61
2022-11-30T01:31:17.030Z,6.34
2022-11-30T01:36:25.944Z,6.09
2022-11-30T01:41:34.302Z,6.25
2022-11-30T01:46:42.888Z,6.24
2022-11-30T01:51:51.249Z,6.21
2022-11-30T01:57:00.080Z,6.09
2022-11-30T02:02:08.539Z,6.16
2022-11-30T02:07:17.256Z,5.99
2022-11-30T02:12:25.245Z,6.27
2022-11-30T02:17:33.880Z,5.98
2022-11-30T02:22:42.203Z,5.73
2022-11-30T02:27:50.451Z,5.91
2022-11-30T02:32:58.923Z,6.13
2022-11-30T02:38:07.903Z,5.84
2022-11-30T02:43:16.203Z,5.76
2022-11-30T02:48:24.720Z,5.62
2022-11-30T02:53:33.089Z,5.83
2022-11-30T02:58:41.776Z,5.70
2022-11-30T03:03:50.263Z,5.46
2022-11-30T03:08:59.038Z,5.75
2022-11-30T03:14:07.063Z,6.00
2022-11-30T03:19:15.266Z,5.69
2022-11-30T03:24:23.360Z,6.09
2022-11-30T03:29:32.445Z,5.70
2022-11-30T03:34:40.642Z,6.01
2022-11-30T03:39:52.476Z,6.25
2022-11-30T03:44:56.996Z,5.92
2022-11-30T03:50:05.680Z,5.92
2022-11-30T03:55:14.054Z,6.06
2022-11-30T04:00:22.608Z,6.39
2022-11-30T04:05:30.940Z,5.98
2022-11-30T04:10:39.804Z,6.09
2022-11-30T04:15:47.957Z,6.33
2022-11-30T04:20:56.723Z,6.07
2022-11-30T04:26:05.312Z,5.98
2022-11-30T04:31:14.224Z,5.83
2022-11-30T04:36:22.434Z,6.33
2022-11-30T04:41:31.075Z,5.99
2022-11-30T04:46:39.179Z,5.74
2022-11-30T04:51:47.658Z,5.57
2022-11-30T04:56:56.630Z,5.64
2022-11-30T05:02:05.389Z,6.28
2022-11-30T05:07:13.487Z,6.97
2022-11-30T05:12:21.909Z,6.44
2022-11-30T05:17:30.523Z,6.53
2022-11-30T05:22:39.384Z,7.93
2022-11-30T05:27:47.697Z,8.43
2022-11-30T05:32:56.502Z,10.14
2022-11-30T05:38:04.638Z,7.54
2022-11-30T05:43:13.061Z,6.79
2022-11-30T05:48:21.627Z,6.95
2022-11-30T05:53:30.340Z,6.72
2022-11-30T05:58:39.016Z,7.30
2022-11-30T06:03:48.101Z,6.89
2022-11-30T06:08:56.493Z,6.40
2022-11-30T06:14:05.558Z,6.72
2022-11-30T06:19:13.867Z,6.72
2022-11-30T06:24:22.661Z,7.21
2022-11-30T06:29:30.848Z,6.82
2022-11-30T06:34:39.796Z,6.43
2022-11-30T06:40:06.015Z,6.31
2022-11-30T06:44:56.815Z,6.19
2022-11-30T06:50:05.270Z,6.22
2022-11-30T06:55:13.904Z,6.20
2022-11-30T07:00:22.030Z,6.28
2022-11-30T07:05:31.138Z,5.94
2022-11-30T07:10:39.572Z,6.06
2022-11-30T07:15:48.268Z,6.02
2022-11-30T07:20:56.352Z,6.17
2022-11-30T07:26:05.460Z,6.46
2022-11-30T07:31:16.215Z,6.15
2022-11-30T07:36:21.648Z,5.85
2022-11-30T07:41:29.861Z,6.20
2022-11-30T07:46:38.594Z,6.30
2022-11-30T07:51:47.386Z,6.92
2022-11-30T07:56:56.657Z,8.16
2022-11-30T08:02:05.335Z,6.37
2022-11-30T08:07:13.927Z,7.28
2022-11-30T08:12:22.457Z,6.96
2022-11-30T08:17:30.859Z,6.62
2022-11-30T08:22:39.421Z,7.32
2022-11-30T08:27:48.163Z,7.27
2022-11-30T08:32:56.824Z,7.37
2022-11-30T08:38:05.667Z,7.51
2022-11-30T08:43:13.804Z,7.03
2022-11-30T08:48:22.400Z,7.36
2022-11-30T08:53:30.588Z,7.52
2022-11-30T08:58:39.322Z,7.94
2022-11-30T09:03:48.324Z,7.66
2022-11-30T09:08:57.705Z,7.88
2022-11-30T09:14:06.612Z,8.42
2022-11-30T09:19:15.439Z,7.92
2022-11-30T09:24:23.869Z,8.19
2022-11-30T09:29:32.694Z,8.21
2022-11-30T09:34:41.083Z,8.34
2022-11-30T09:39:50.244Z,8.82
2022-11-30T09:44:58.905Z,9.20
2022-11-30T09:50:07.747Z,9.03
2022-11-30T09:55:16.476Z,8.99
2022-11-30T10:00:25.219Z,9.05
2022-11-30T10:05:33.649Z,9.41
2022-11-30T10:10:42.959Z,8.96
2022-11-30T10:15:51.216Z,9.10
2022-11-30T10:20:59.688Z,9.08
2022-11-30T10:26:07.677Z,9.76
2022-11-30T10:31:16.710Z,9.93
2022-11-30T10:36:25.217Z,9.89
2022-11-30T10:41:33.833Z,9.82
2022-11-30T10:46:42.550Z,12.24
2022-11-30T10:51:51.094Z,10.00
2022-11-30T10:56:59.440Z,9.81
2022-11-30T11:02:08.273Z,10.11
2022-11-30T11:07:16.391Z,10.21
2022-11-30T11:12:25.334Z,9.87
2022-11-30T11:17:33.934Z,9.70
2022-11-30T11:22:43.190Z,9.38
2022-11-30T11:27:51.398Z,9.56
2022-11-30T11:32:59.966Z,9.63
2022-11-30T11:38:08.161Z,9.60
2022-11-30T11:43:16.405Z,10.01
2022-11-30T11:48:28.856Z,10.15
2022-11-30T11:53:32.694Z,9.91
2022-11-30T11:58:40.938Z,10.26
2022-11-30T12:03:49.421Z,9.71
2022-11-30T12:08:57.929Z,10.10
2022-11-30T12:14:06.714Z,11.05
2022-11-30T12:19:14.842Z,11.29
2022-11-30T12:24:23.542Z,10.53
2022-11-30T12:29:31.594Z,11.08
2022-11-30T12:34:39.998Z,11.15
2022-11-30T12:39:48.412Z,11.23
2022-11-30T12:45:00.118Z,11.11
2022-11-30T12:49:58.637Z,10.87
2022-11-30T12:55:07.943Z,11.40
2022-11-30T13:00:16.326Z,11.25
2022-11-30T13:05:25.001Z,10.73
2022-11-30T13:10:33.287Z,10.98
2022-11-30T13:15:42.041Z,11.25
2022-11-30T13:20:50.732Z,10.94
2022-11-30T13:26:07.965Z,10.45
2022-11-30T13:31:08.381Z,10.92
2022-11-30T13:36:17.372Z,11.00
2022-11-30T13:41:25.628Z,11.23
2022-11-30T13:46:34.563Z,10.81
2022-11-30T13:51:43.395Z,10.61
2022-11-30T13:56:51.828Z,10.96
2022-11-30T14:02:15.940Z,11.01
2022-11-30T14:07:04.879Z,10.53
2022-11-30T14:12:13.568Z,11.07
2022-11-30T14:17:22.566Z,10.82
2022-11-30T14:22:31.102Z,10.80
2022-11-30T14:27:39.570Z,10.82
2022-11-30T14:32:47.877Z,10.57
2022-11-30T14:37:56.342Z,10.85
2022-11-30T14:43:04.825Z,9.98
2022-11-30T14:48:13.574Z,10.79
2022-11-30T14:53:22.367Z,10.76
2022-11-30T14:58:31.253Z,10.13
2022-11-30T15:03:40.845Z,10.25
2022-11-30T15:08:48.156Z,10.12
2022-11-30T15:13:56.584Z,10.29
2022-11-30T15:19:05.500Z,10.20
2022-11-30T15:24:14.203Z,9.97
2022-11-30T15:29:23.412Z,10.55
2022-11-30T15:34:31.491Z,10.04
2022-11-30T15:39:39.829Z,10.20
2022-11-30T15:44:48.354Z,9.78
2022-11-30T15:49:56.896Z,10.43
2022-11-30T15:55:05.524Z,12.13
2022-11-30T16:00:14.125Z,10.46
2022-11-30T16:05:22.414Z,10.26
2022-11-30T16:10:31.419Z,9.92
2022-11-30T16:15:40.196Z,10.29
2022-11-30T16:20:49.034Z,9.35
2022-11-30T16:25:57.849Z,9.29
2022-11-30T16:31:06.747Z,10.02
2022-11-30T16:36:14.755Z,9.71
2022-11-30T16:41:23.322Z,8.90
2022-11-30T16:46:32.003Z,10.36
2022-11-30T16:51:40.790Z,7.98
2022-11-30T16:56:49.113Z,8.10
2022-11-30T17:01:57.611Z,8.24
2022-11-30T17:07:05.665Z,11.03
2022-11-30T17:12:14.395Z,9.30
2022-11-30T17:17:22.788Z,8.93
2022-11-30T17:22:31.603Z,8.84
2022-11-30T17:27:39.924Z,8.46
2022-11-30T17:32:48.685Z,11.21
2022-11-30T17:37:59.949Z,9.04
2022-11-30T17:42:58.205Z,8.93
2022-11-30T17:48:06.785Z,9.00
2022-11-30T17:53:18.304Z,9.70
2022-11-30T17:58:23.449Z,9.59
2022-11-30T18:03:32.482Z,9.04
2022-11-30T18:08:41.048Z,10.02
2022-11-30T18:13:49.934Z,9.37
2022-11-30T18:18:58.425Z,9.24
2022-11-30T18:24:07.499Z,9.55
2022-11-30T18:29:15.588Z,9.39
2022-11-30T18:34:24.700Z,9.72
2022-11-30T18:39:33.523Z,9.38
2022-11-30T18:44:42.893Z,8.82
2022-11-30T18:49:51.413Z,9.40
2022-11-30T18:55:00.412Z,8.93
2022-11-30T19:00:08.988Z,8.62
2022-11-30T19:05:18.417Z,8.61
2022-11-30T19:10:27.369Z,8.93
2022-11-30T19:15:35.910Z,8.75
2022-11-30T19:20:44.587Z,9.50
2022-11-30T19:25:53.138Z,8.94
2022-11-30T19:31:01.605Z,8.98
2022-11-30T19:36:10.371Z,8.53
2022-11-30T19:41:18.710Z,8.51
2022-11-30T19:46:28.011Z,8.43
2022-11-30T19:51:36.248Z,8.43
2022-11-30T19:56:45.473Z,8.33
2022-11-30T20:01:53.899Z,8.80
2022-11-30T20:07:02.721Z,8.56
2022-11-30T20:12:11.498Z,8.38
2022-11-30T20:17:20.196Z,8.63
2022-11-30T20:22:28.628Z,8.50
2022-11-30T20:27:37.696Z,8.48
2022-11-30T20:32:45.880Z,8.17
2022-11-30T20:37:54.883Z,8.51
2022-11-30T20:43:03.707Z,8.92
2022-11-30T20:48:12.800Z,8.72
2022-11-30T20:53:21.543Z,8.48
2022-11-30T20:58:30.597Z,8.39
2022-11-30T21:03:38.855Z,8.80
2022-11-30T21:08:47.427Z,8.65
2022-11-30T21:13:55.583Z,8.79
2022-11-30T21:19:04.594Z,8.75
2022-11-30T21:24:12.954Z,8.18
2022-11-30T21:29:22.025Z,8.40
2022-11-30T21:34:30.679Z,8.09
2022-11-30T21:39:39.087Z,8.08
2022-11-30T21:44:48.014Z,8.57
2022-11-30T21:49:56.581Z,8.71
2022-11-30T21:55:05.286Z,8.60
2022-11-30T22:00:14.458Z,8.88
2022-11-30T22:05:22.887Z,8.27
2022-11-30T22:10:31.765Z,8.42
2022-11-30T22:15:40.443Z,8.52
2022-11-30T22:20:49.094Z,8.54
2022-11-30T22:25:57.538Z,8.09
2022-11-30T22:31:06.430Z,8.01
2022-11-30T22:36:15.007Z,7.62
2022-11-30T22:41:23.479Z,7.67
2022-11-30T22:46:32.058Z,8.06
2022-11-30T22:51:40.945Z,7.67
2022-11-30T22:56:49.441Z,7.80
2022-11-30T23:01:57.891Z,8.03
2022-11-30T23:07:06.032Z,7.60
2022-11-30T23:12:29.989Z,8.06
2022-11-30T23:17:22.159Z,7.78
2022-11-30T23:22:30.844Z,7.37
2022-11-30T23:27:39.184Z,7.38
2022-11-30T23:32:48.368Z,7.11
2022-11-30T23:37:56.532Z,7.12
2022-11-30T23:43:05.462Z,7.29
2022-11-30T23:48:13.700Z,7.05
2022-11-30T23:53:23.034Z,6.97
2022-11-30T23:58:31.175Z,6.76
